sensor_id;sensor_type;location;lat;lon;timestamp;pressure;altitude;pressure_sealevel;temperature;humidity
43217;BME280;60511;42.686;23.300;2023-01-24T00:00:39;95576.19;;;20.68;29.17
43217;BME280;60511;42.686;23.300;2023-01-24T00:02:40;95555.34;;;20.51;28.95
43217;BME280;60511;42.686;23.300;2023-01-24T00:04:40;95512.25;;;20.25;28.91
43217;BME280;60511;42.686;23.300;2023-01-24T00:06:40;95606.00;;;20.89;29.19
43217;BME280;60511;42.686;23.300;2023-01-24T00:08:41;95616.94;;;20.93;28.91
43217;BME280;60511;42.686;23.300;2023-01-24T00:10:42;95618.50;;;20.94;29.26
43217;BME280;60511;42.686;23.300;2023-01-24T00:12:42;95567.47;;;20.62;28.88
43217;BME280;60511;42.686;23.300;2023-01-24T00:14:43;95373.34;;;19.32;28.88
43217;BME280;60511;42.686;23.300;2023-01-24T00:16:43;95538.38;;;20.33;29.14
43217;BME280;60511;42.686;23.300;2023-01-24T00:18:44;95544.75;;;20.46;29.01
43217;BME280;60511;42.686;23.300;2023-01-24T00:20:45;95616.41;;;20.82;28.96
43217;BME280;60511;42.686;23.300;2023-01-24T00:22:45;95630.81;;;20.86;29.20
43217;BME280;60511;42.686;23.300;2023-01-24T00:24:46;95618.97;;;20.87;29.05
43217;BME280;60511;42.686;23.300;2023-01-24T00:26:46;95517.28;;;20.18;29.28
43217;BME280;60511;42.686;23.300;2023-01-24T00:28:47;95580.84;;;20.54;29.33
43217;BME280;60511;42.686;23.300;2023-01-24T00:30:49;95631.47;;;20.92;29.47
43217;BME280;60511;42.686;23.300;2023-01-24T00:32:50;95621.09;;;20.67;29.19
43217;BME280;60511;42.686;23.300;2023-01-24T00:34:50;95540.03;;;20.20;29.08
43217;BME280;60511;42.686;23.300;2023-01-24T00:36:51;95537.72;;;20.27;29.00
43217;BME280;60511;42.686;23.300;2023-01-24T00:38:53;95624.19;;;20.83;29.06
43217;BME280;60511;42.686;23.300;2023-01-24T00:40:53;95633.53;;;20.86;29.19
43217;BME280;60511;42.686;23.300;2023-01-24T00:42:54;95630.34;;;20.84;29.15
43217;BME280;60511;42.686;23.300;2023-01-24T00:44:54;95554.34;;;20.30;29.02
43217;BME280;60511;42.686;23.300;2023-01-24T00:46:54;95644.16;;;20.91;28.86
43217;BME280;60511;42.686;23.300;2023-01-24T00:48:55;95579.88;;;20.50;28.95
43217;BME280;60511;42.686;23.300;2023-01-24T00:50:55;95632.44;;;20.87;28.88
43217;BME280;60511;42.686;23.300;2023-01-24T00:52:56;95653.19;;;20.95;29.10
43217;BME280;60511;42.686;23.300;2023-01-24T00:54:56;95397.06;;;19.38;29.13
43217;BME280;60511;42.686;23.300;2023-01-24T00:56:56;95530.88;;;20.21;29.13
43217;BME280;60511;42.686;23.300;2023-01-24T00:58:57;95608.00;;;20.66;29.02
43217;BME280;60511;42.686;23.300;2023-01-24T01:00:57;95598.63;;;20.63;28.78
43217;BME280;60511;42.686;23.300;2023-01-24T01:03:00;95585.81;;;20.60;29.02
43217;BME280;60511;42.686;23.300;2023-01-24T01:05:00;95422.88;;;19.48;29.06
43217;BME280;60511;42.686;23.300;2023-01-24T01:07:01;95628.78;;;20.83;29.18
43217;BME280;60511;42.686;23.300;2023-01-24T01:11:02;95626.25;;;20.86;28.71
43217;BME280;60511;42.686;23.300;2023-01-24T01:15:05;95553.22;;;20.31;29.10
43217;BME280;60511;42.686;23.300;2023-01-24T01:17:05;95582.09;;;20.47;28.96
43217;BME280;60511;42.686;23.300;2023-01-24T01:19:06;95600.03;;;20.61;29.26
43217;BME280;60511;42.686;23.300;2023-01-24T01:21:06;95607.16;;;20.65;29.20
43217;BME280;60511;42.686;23.300;2023-01-24T01:23:07;95522.34;;;20.19;29.04
43217;BME280;60511;42.686;23.300;2023-01-24T01:25:08;95644.13;;;20.82;28.90
43217;BME280;60511;42.686;23.300;2023-01-24T01:27:08;95599.97;;;20.52;28.98
43217;BME280;60511;42.686;23.300;2023-01-24T01:29:09;95595.88;;;20.55;29.03
43217;BME280;60511;42.686;23.300;2023-01-24T01:31:09;95353.44;;;19.01;28.79
43217;BME280;60511;42.686;23.300;2023-01-24T01:33:10;95632.06;;;20.80;29.26
43217;BME280;60511;42.686;23.300;2023-01-24T01:35:10;95649.06;;;20.89;29.06
43217;BME280;60511;42.686;23.300;2023-01-24T01:37:10;95546.84;;;20.18;28.97
43217;BME280;60511;42.686;23.300;2023-01-24T01:39:11;95452.34;;;19.62;29.23
43217;BME280;60511;42.686;23.300;2023-01-24T01:41:14;95638.41;;;20.84;29.23
43217;BME280;60511;42.686;23.300;2023-01-24T01:43:16;95646.84;;;20.91;29.12
43217;BME280;60511;42.686;23.300;2023-01-24T01:45:41;95646.38;;;20.89;29.20
43217;BME280;60511;42.686;23.300;2023-01-24T01:47:42;95570.16;;;20.31;29.05
43217;BME280;60511;42.686;23.300;2023-01-24T01:49:48;95629.22;;;20.76;28.96
43217;BME280;60511;42.686;23.300;2023-01-24T01:51:53;95640.81;;;20.85;29.07
43217;BME280;60511;42.686;23.300;2023-01-24T01:54:03;95640.03;;;20.85;29.07
43217;BME280;60511;42.686;23.300;2023-01-24T01:56:19;95609.38;;;20.63;29.02
43217;BME280;60511;42.686;23.300;2023-01-24T01:58:21;95567.50;;;20.40;29.00
43217;BME280;60511;42.686;23.300;2023-01-24T02:00:22;95542.31;;;20.27;28.90
43217;BME280;60511;42.686;23.300;2023-01-24T02:02:24;95527.94;;;20.00;29.14
43217;BME280;60511;42.686;23.300;2023-01-24T02:04:40;95641.28;;;20.87;28.95
43217;BME280;60511;42.686;23.300;2023-01-24T02:09:26;95604.84;;;20.73;29.06
43217;BME280;60511;42.686;23.300;2023-01-24T02:11:27;95638.91;;;20.86;28.92
43217;BME280;60511;42.686;23.300;2023-01-24T02:13:40;95556.25;;;20.38;28.89
43217;BME280;60511;42.686;23.300;2023-01-24T02:15:45;95524.34;;;20.05;29.04
43217;BME280;60511;42.686;23.300;2023-01-24T02:18:05;95624.84;;;20.89;29.25
43217;BME280;60511;42.686;23.300;2023-01-24T02:22:15;95630.69;;;20.91;29.04
43217;BME280;60511;42.686;23.300;2023-01-24T02:24:22;95625.63;;;20.90;28.80
43217;BME280;60511;42.686;23.300;2023-01-24T02:26:26;95542.31;;;20.27;28.93
43217;BME280;60511;42.686;23.300;2023-01-24T02:28:28;95619.56;;;20.75;29.06
43217;BME280;60511;42.686;23.300;2023-01-24T02:30:28;95596.34;;;20.57;28.89
43217;BME280;60511;42.686;23.300;2023-01-24T02:32:29;95524.06;;;20.15;29.08
43217;BME280;60511;42.686;23.300;2023-01-24T02:34:29;95635.44;;;20.85;29.20
43217;BME280;60511;42.686;23.300;2023-01-24T02:36:35;95507.41;;;20.04;29.14
43217;BME280;60511;42.686;23.300;2023-01-24T02:38:39;95490.44;;;19.95;28.98
43217;BME280;60511;42.686;23.300;2023-01-24T02:40:41;95508.81;;;20.02;28.98
43217;BME280;60511;42.686;23.300;2023-01-24T02:42:41;95632.44;;;20.87;29.26
43217;BME280;60511;42.686;23.300;2023-01-24T02:44:50;95616.88;;;20.75;28.90
43217;BME280;60511;42.686;23.300;2023-01-24T02:46:51;95635.44;;;20.85;28.91
43217;BME280;60511;42.686;23.300;2023-01-24T02:48:52;95582.81;;;20.62;29.12
43217;BME280;60511;42.686;23.300;2023-01-24T02:50:52;95616.88;;;20.75;28.93
43217;BME280;60511;42.686;23.300;2023-01-24T02:53:11;95597.38;;;20.70;28.94
43217;BME280;60511;42.686;23.300;2023-01-24T02:55:30;95631.28;;;20.79;28.90
43217;BME280;60511;42.686;23.300;2023-01-24T02:57:30;95635.13;;;20.87;29.13
43217;BME280;60511;42.686;23.300;2023-01-24T02:59:49;95605.94;;;20.72;28.94
43217;BME280;60511;42.686;23.300;2023-01-24T03:01:49;95608.00;;;20.75;28.67
43217;BME280;60511;42.686;23.300;2023-01-24T03:03:50;95634.81;;;20.89;29.06
43217;BME280;60511;42.686;23.300;2023-01-24T03:05:52;95590.41;;;20.60;28.83
43217;BME280;60511;42.686;23.300;2023-01-24T03:07:58;95555.19;;;20.47;28.79
43217;BME280;60511;42.686;23.300;2023-01-24T03:09:58;95594.19;;;20.59;29.08
43217;BME280;60511;42.686;23.300;2023-01-24T03:12:03;95622.44;;;20.87;28.85
43217;BME280;60511;42.686;23.300;2023-01-24T03:14:23;95622.28;;;20.84;29.08
43217;BME280;60511;42.686;23.300;2023-01-24T03:16:42;95604.38;;;20.79;29.02
43217;BME280;60511;42.686;23.300;2023-01-24T03:19:01;95580.53;;;20.55;28.91
43217;BME280;60511;42.686;23.300;2023-01-24T03:21:20;95583.91;;;20.61;28.53
43217;BME280;60511;42.686;23.300;2023-01-24T03:23:39;95591.22;;;20.69;28.91
43217;BME280;60511;42.686;23.300;2023-01-24T03:25:58;95610.41;;;20.76;28.96
43217;BME280;60511;42.686;23.300;2023-01-24T03:28:18;95543.09;;;20.27;29.04
43217;BME280;60511;42.686;23.300;2023-01-24T03:30:37;95626.88;;;20.83;28.66
43217;BME280;60511;42.686;23.300;2023-01-24T03:33:03;95618.78;;;20.75;29.32
43217;BME280;60511;42.686;23.300;2023-01-24T03:35:22;95623.03;;;20.76;28.95
43217;BME280;60511;42.686;23.300;2023-01-24T03:37:24;95628.47;;;20.84;28.75
43217;BME280;60511;42.686;23.300;2023-01-24T03:39:43;95617.53;;;20.81;28.71
43217;BME280;60511;42.686;23.300;2023-01-24T03:41:58;95553.91;;;20.45;28.65
43217;BME280;60511;42.686;23.300;2023-01-24T03:43:59;95582.81;;;20.62;29.02
43217;BME280;60511;42.686;23.300;2023-01-24T03:45:59;95585.59;;;20.57;28.75
43217;BME280;60511;42.686;23.300;2023-01-24T03:48:02;95576.13;;;20.59;28.84
43217;BME280;60511;42.686;23.300;2023-01-24T03:50:03;95420.84;;;19.54;28.69
43217;BME280;60511;42.686;23.300;2023-01-24T03:52:23;95574.75;;;20.62;28.56
43217;BME280;60511;42.686;23.300;2023-01-24T03:54:29;95588.19;;;20.62;28.63
43217;BME280;60511;42.686;23.300;2023-01-24T03:56:29;95568.88;;;20.60;28.89
43217;BME280;60511;42.686;23.300;2023-01-24T03:58:31;95580.13;;;20.62;28.71
43217;BME280;60511;42.686;23.300;2023-01-24T04:00:31;95596.78;;;20.81;28.74
43217;BME280;60511;42.686;23.300;2023-01-24T04:02:32;95517.00;;;20.28;28.57
43217;BME280;60511;42.686;23.300;2023-01-24T04:04:32;95519.19;;;20.26;29.32
43217;BME280;60511;42.686;23.300;2023-01-24T04:06:53;95617.38;;;20.86;28.55
43217;BME280;60511;42.686;23.300;2023-01-24T04:08:53;95586.47;;;20.66;28.87
43217;BME280;60511;42.686;23.300;2023-01-24T04:10:55;95436.38;;;19.65;28.93
43217;BME280;60511;42.686;23.300;2023-01-24T04:12:56;95617.38;;;20.86;28.85
43217;BME280;60511;42.686;23.300;2023-01-24T04:14:57;95594.09;;;20.81;28.78
43217;BME280;60511;42.686;23.300;2023-01-24T04:16:57;95541.56;;;20.44;28.71
43217;BME280;60511;42.686;23.300;2023-01-24T04:21:03;95514.78;;;20.30;28.54
43217;BME280;60511;42.686;23.300;2023-01-24T04:23:05;95577.09;;;20.63;28.61
43217;BME280;60511;42.686;23.300;2023-01-24T04:25:07;95581.56;;;20.68;28.57
43217;BME280;60511;42.686;23.300;2023-01-24T04:27:07;95544.09;;;20.40;28.55
43217;BME280;60511;42.686;23.300;2023-01-24T04:29:08;95561.91;;;20.59;28.66
43217;BME280;60511;42.686;23.300;2023-01-24T04:31:08;95559.81;;;20.56;28.72
43217;BME280;60511;42.686;23.300;2023-01-24T04:33:09;95543.78;;;20.42;28.70
43217;BME280;60511;42.686;23.300;2023-01-24T04:35:15;95621.50;;;20.83;28.82
43217;BME280;60511;42.686;23.300;2023-01-24T04:37:15;95567.28;;;20.59;28.68
43217;BME280;60511;42.686;23.300;2023-01-24T04:39:16;95493.06;;;20.09;28.54
43217;BME280;60511;42.686;23.300;2023-01-24T04:41:16;95550.44;;;20.44;28.81
43217;BME280;60511;42.686;23.300;2023-01-24T04:43:17;95472.56;;;19.91;28.78
43217;BME280;60511;42.686;23.300;2023-01-24T04:45:17;95612.59;;;20.74;28.50
43217;BME280;60511;42.686;23.300;2023-01-24T04:47:17;95526.59;;;20.20;28.93
43217;BME280;60511;42.686;23.300;2023-01-24T04:49:18;95631.94;;;20.85;28.87
43217;BME280;60511;42.686;23.300;2023-01-24T04:51:18;95499.84;;;20.06;28.65
43217;BME280;60511;42.686;23.300;2023-01-24T04:53:19;95635.88;;;20.79;29.09
43217;BME280;60511;42.686;23.300;2023-01-24T04:55:19;95609.75;;;20.79;28.70
43217;BME280;60511;42.686;23.300;2023-01-24T04:57:19;95596.75;;;20.64;28.79
43217;BME280;60511;42.686;23.300;2023-01-24T04:59:20;95550.88;;;20.38;28.58
43217;BME280;60511;42.686;23.300;2023-01-24T05:01:20;95601.78;;;20.65;28.56
43217;BME280;60511;42.686;23.300;2023-01-24T05:03:21;95612.88;;;20.64;28.87
43217;BME280;60511;42.686;23.300;2023-01-24T05:05:21;95552.72;;;20.28;28.61
43217;BME280;60511;42.686;23.300;2023-01-24T05:07:21;95543.53;;;20.21;28.75
43217;BME280;60511;42.686;23.300;2023-01-24T05:09:22;95516.59;;;20.12;28.51
43217;BME280;60511;42.686;23.300;2023-01-24T05:11:23;95589.41;;;20.56;28.63
43217;BME280;60511;42.686;23.300;2023-01-24T05:13:24;95583.94;;;20.38;28.63
43217;BME280;60511;42.686;23.300;2023-01-24T05:15:24;95588.75;;;20.50;28.59
43217;BME280;60511;42.686;23.300;2023-01-24T05:17:26;95505.34;;;20.01;28.58
43217;BME280;60511;42.686;23.300;2023-01-24T05:19:26;95631.91;;;20.76;28.96
43217;BME280;60511;42.686;23.300;2023-01-24T05:21:26;95539.75;;;20.22;28.60
43217;BME280;60511;42.686;23.300;2023-01-24T05:23:27;95630.78;;;20.69;28.63
43217;BME280;60511;42.686;23.300;2023-01-24T05:25:27;95561.69;;;20.15;28.57
43217;BME280;60511;42.686;23.300;2023-01-24T05:27:28;95519.53;;;19.93;28.67
43217;BME280;60511;42.686;23.300;2023-01-24T05:29:28;95654.69;;;20.70;28.59
43217;BME280;60511;42.686;23.300;2023-01-24T05:31:28;95657.22;;;20.75;28.55
43217;BME280;60511;42.686;23.300;2023-01-24T05:33:29;95569.56;;;20.12;28.82
43217;BME280;60511;42.686;23.300;2023-01-24T05:35:30;95641.59;;;20.55;28.47
43217;BME280;60511;42.686;23.300;2023-01-24T05:37:30;95552.63;;;20.02;28.57
43217;BME280;60511;42.686;23.300;2023-01-24T05:39:31;95626.56;;;20.54;28.73
43217;BME280;60511;42.686;23.300;2023-01-24T05:41:31;95659.63;;;20.77;28.31
43217;BME280;60511;42.686;23.300;2023-01-24T05:43:32;95691.75;;;20.82;28.72
43217;BME280;60511;42.686;23.300;2023-01-24T05:45:32;95639.53;;;20.52;28.51
43217;BME280;60511;42.686;23.300;2023-01-24T05:47:33;95683.69;;;20.82;28.75
43217;BME280;60511;42.686;23.300;2023-01-24T05:49:33;95688.75;;;20.83;28.37
43217;BME280;60511;42.686;23.300;2023-01-24T05:51:33;95635.88;;;20.47;28.85
43217;BME280;60511;42.686;23.300;2023-01-24T05:53:36;95688.75;;;20.83;28.43
43217;BME280;60511;42.686;23.300;2023-01-24T05:55:37;95678.16;;;20.78;28.70
43217;BME280;60511;42.686;23.300;2023-01-24T05:57:38;95684.75;;;20.72;28.76
43217;BME280;60511;42.686;23.300;2023-01-24T05:59:38;95613.47;;;20.30;28.51
43217;BME280;60511;42.686;23.300;2023-01-24T06:01:39;95574.28;;;20.06;28.63
43217;BME280;60511;42.686;23.300;2023-01-24T06:03:40;95696.53;;;20.85;28.37
43217;BME280;60511;42.686;23.300;2023-01-24T06:05:48;95678.91;;;20.70;28.80
43217;BME280;60511;42.686;23.300;2023-01-24T06:07:49;95682.00;;;20.63;28.47
43217;BME280;60511;42.686;23.300;2023-01-24T06:09:49;95681.59;;;20.70;28.52
43217;BME280;60511;42.686;23.300;2023-01-24T06:11:50;95635.66;;;20.35;28.83
43217;BME280;60511;42.686;23.300;2023-01-24T06:13:50;95707.75;;;20.78;28.61
43217;BME280;60511;42.686;23.300;2023-01-24T06:16:00;95622.28;;;20.21;28.76
43217;BME280;60511;42.686;23.300;2023-01-24T06:18:01;95624.50;;;20.19;28.65
43217;BME280;60511;42.686;23.300;2023-01-24T06:20:01;95634.50;;;20.27;28.60
43217;BME280;60511;42.686;23.300;2023-01-24T06:26:15;95699.19;;;20.76;28.18
43217;BME280;60511;42.686;23.300;2023-01-24T06:28:15;95702.78;;;20.72;28.41
43217;BME280;60511;42.686;23.300;2023-01-24T06:30:18;95722.78;;;20.79;28.53
43217;BME280;60511;42.686;23.300;2023-01-24T06:35:13;95730.84;;;20.79;28.62
43217;BME280;60511;42.686;23.300;2023-01-24T06:37:32;95738.13;;;20.79;28.82
43217;BME280;60511;42.686;23.300;2023-01-24T06:39:34;95448.97;;;18.89;28.65
43217;BME280;60511;42.686;23.300;2023-01-24T06:41:36;95734.47;;;20.75;28.66
43217;BME280;60511;42.686;23.300;2023-01-24T06:43:37;95665.34;;;20.30;28.74
43217;BME280;60511;42.686;23.300;2023-01-24T06:45:37;95675.16;;;20.35;28.55
43217;BME280;60511;42.686;23.300;2023-01-24T06:47:38;95744.28;;;20.79;28.83
43217;BME280;60511;42.686;23.300;2023-01-24T06:49:40;95739.41;;;20.81;28.59
43217;BME280;60511;42.686;23.300;2023-01-24T06:51:41;95677.75;;;20.40;28.55
43217;BME280;60511;42.686;23.300;2023-01-24T06:53:41;95721.88;;;20.61;28.80
43217;BME280;60511;42.686;23.300;2023-01-24T06:55:45;95704.94;;;20.61;28.53
43217;BME280;60511;42.686;23.300;2023-01-24T06:57:46;95682.19;;;20.44;28.84
43217;BME280;60511;42.686;23.300;2023-01-24T06:59:47;95738.91;;;20.79;28.79
43217;BME280;60511;42.686;23.300;2023-01-24T07:01:51;95668.53;;;20.32;28.36
43217;BME280;60511;42.686;23.300;2023-01-24T07:03:51;95735.41;;;20.70;28.88
43217;BME280;60511;42.686;23.300;2023-01-24T07:05:52;95699.31;;;20.48;28.54
43217;BME280;60511;42.686;23.300;2023-01-24T07:07:52;95757.44;;;20.81;28.38
43217;BME280;60511;42.686;23.300;2023-01-24T07:09:53;95746.94;;;20.71;28.58
43217;BME280;60511;42.686;23.300;2023-01-24T07:11:53;95758.88;;;20.78;28.59
43217;BME280;60511;42.686;23.300;2023-01-24T07:13:56;95743.13;;;20.72;28.56
43217;BME280;60511;42.686;23.300;2023-01-24T07:16:00;95707.19;;;20.45;28.71
43217;BME280;60511;42.686;23.300;2023-01-24T07:18:05;95733.75;;;20.60;28.65
43217;BME280;60511;42.686;23.300;2023-01-24T07:20:06;95680.50;;;20.26;28.34
43217;BME280;60511;42.686;23.300;2023-01-24T07:22:11;95717.66;;;20.46;28.73
43217;BME280;60511;42.686;23.300;2023-01-24T07:24:17;95672.94;;;20.28;28.90
43217;BME280;60511;42.686;23.300;2023-01-24T07:26:19;95569.44;;;19.49;28.50
43217;BME280;60511;42.686;23.300;2023-01-24T07:28:19;95682.50;;;20.20;28.85
43217;BME280;60511;42.686;23.300;2023-01-24T07:30:20;95728.78;;;20.54;28.47
43217;BME280;60511;42.686;23.300;2023-01-24T07:32:20;95753.75;;;20.68;28.57
43217;BME280;60511;42.686;23.300;2023-01-24T07:34:21;95768.31;;;20.76;28.53
43217;BME280;60511;42.686;23.300;2023-01-24T07:36:21;95731.88;;;20.47;28.70
43217;BME280;60511;42.686;23.300;2023-01-24T07:38:22;95702.94;;;20.21;28.35
43217;BME280;60511;42.686;23.300;2023-01-24T07:40:22;95766.88;;;20.70;28.58
43217;BME280;60511;42.686;23.300;2023-01-24T07:42:23;95622.16;;;19.81;28.59
43217;BME280;60511;42.686;23.300;2023-01-24T07:44:23;95705.81;;;20.25;28.58
43217;BME280;60511;42.686;23.300;2023-01-24T07:46:23;95770.97;;;20.67;28.62
43217;BME280;60511;42.686;23.300;2023-01-24T07:48:24;95774.34;;;20.73;28.50
43217;BME280;60511;42.686;23.300;2023-01-24T07:50:25;95794.63;;;20.79;28.45
43217;BME280;60511;42.686;23.300;2023-01-24T07:52:26;95532.38;;;19.15;28.49
43217;BME280;60511;42.686;23.300;2023-01-24T07:54:26;95755.03;;;20.57;28.55
43217;BME280;60511;42.686;23.300;2023-01-24T07:56:27;95754.84;;;20.53;28.45
43217;BME280;60511;42.686;23.300;2023-01-24T07:58:27;95749.19;;;20.55;28.51
43217;BME280;60511;42.686;23.300;2023-01-24T08:00:29;95803.50;;;20.79;28.38
43217;BME280;60511;42.686;23.300;2023-01-24T08:02:29;95761.34;;;20.52;28.49
43217;BME280;60511;42.686;23.300;2023-01-24T08:04:29;95770.09;;;20.58;28.47
43217;BME280;60511;42.686;23.300;2023-01-24T08:06:30;95702.38;;;20.11;28.54
43217;BME280;60511;42.686;23.300;2023-01-24T08:08:30;95758.47;;;20.48;28.49
43217;BME280;60511;42.686;23.300;2023-01-24T08:10:31;95790.00;;;20.71;28.55
43217;BME280;60511;42.686;23.300;2023-01-24T08:12:31;95796.03;;;20.76;28.41
43217;BME280;60511;42.686;23.300;2023-01-24T08:14:31;95717.06;;;20.27;28.29
43217;BME280;60511;42.686;23.300;2023-01-24T08:16:32;95800.75;;;20.71;28.83
43217;BME280;60511;42.686;23.300;2023-01-24T08:18:32;95759.44;;;20.53;28.55
43217;BME280;60511;42.686;23.300;2023-01-24T08:20:32;95701.75;;;20.14;28.34
43217;BME280;60511;42.686;23.300;2023-01-24T08:22:33;95572.28;;;19.30;28.69
43217;BME280;60511;42.686;23.300;2023-01-24T08:24:33;95695.91;;;20.12;28.52
43217;BME280;60511;42.686;23.300;2023-01-24T08:26:34;95753.38;;;20.47;28.37
43217;BME280;60511;42.686;23.300;2023-01-24T08:28:34;95800.78;;;20.79;28.60
43217;BME280;60511;42.686;23.300;2023-01-24T08:30:35;95578.34;;;19.36;28.55
43217;BME280;60511;42.686;23.300;2023-01-24T08:32:36;95801.28;;;20.81;28.41
43217;BME280;60511;42.686;23.300;2023-01-24T08:34:36;95790.97;;;20.75;28.38
43217;BME280;60511;42.686;23.300;2023-01-24T08:36:37;95783.34;;;20.54;28.56
43217;BME280;60511;42.686;23.300;2023-01-24T08:38:37;95741.00;;;20.37;28.51
43217;BME280;60511;42.686;23.300;2023-01-24T08:40:38;95796.78;;;20.68;28.69
43217;BME280;60511;42.686;23.300;2023-01-24T08:42:38;95793.50;;;20.80;28.42
43217;BME280;60511;42.686;23.300;2023-01-24T08:44:38;95779.81;;;20.67;28.64
43217;BME280;60511;42.686;23.300;2023-01-24T08:46:39;95660.72;;;19.99;28.34
43217;BME280;60511;42.686;23.300;2023-01-24T08:48:39;95701.03;;;20.22;28.27
43217;BME280;60511;42.686;23.300;2023-01-24T08:50:40;95784.72;;;20.65;28.33
43217;BME280;60511;42.686;23.300;2023-01-24T08:52:40;95544.50;;;19.12;28.50
43217;BME280;60511;42.686;23.300;2023-01-24T08:54:41;95758.19;;;20.50;28.35
43217;BME280;60511;42.686;23.300;2023-01-24T08:56:41;95796.44;;;20.92;28.42
43217;BME280;60511;42.686;23.300;2023-01-24T08:58:42;95786.59;;;20.87;28.14
43217;BME280;60511;42.686;23.300;2023-01-24T09:00:42;95706.16;;;20.32;28.32
43217;BME280;60511;42.686;23.300;2023-01-24T09:02:43;95744.03;;;20.58;28.47
43217;BME280;60511;42.686;23.300;2023-01-24T09:04:43;95563.22;;;19.40;28.45
43217;BME280;60511;42.686;23.300;2023-01-24T09:06:43;95778.31;;;20.75;28.66
43217;BME280;60511;42.686;23.300;2023-01-24T09:08:44;95739.66;;;20.48;28.32
43217;BME280;60511;42.686;23.300;2023-01-24T09:10:44;95730.50;;;20.50;28.22
43217;BME280;60511;42.686;23.300;2023-01-24T09:12:44;95777.06;;;20.81;28.46
43217;BME280;60511;42.686;23.300;2023-01-24T09:14:45;95807.28;;;21.01;28.51
43217;BME280;60511;42.686;23.300;2023-01-24T09:16:45;95789.00;;;20.89;28.16
43217;BME280;60511;42.686;23.300;2023-01-24T09:18:46;95761.00;;;20.67;28.44
43217;BME280;60511;42.686;23.300;2023-01-24T09:20:46;95793.59;;;20.89;28.23
43217;BME280;60511;42.686;23.300;2023-01-24T09:22:46;95806.41;;;20.92;28.40
43217;BME280;60511;42.686;23.300;2023-01-24T09:24:47;95741.13;;;20.55;28.26
43217;BME280;60511;42.686;23.300;2023-01-24T09:26:47;95700.31;;;20.30;28.47
43217;BME280;60511;42.686;23.300;2023-01-24T09:28:48;95675.88;;;20.18;28.14
43217;BME280;60511;42.686;23.300;2023-01-24T09:30:49;95808.38;;;21.00;28.03
43217;BME280;60511;42.686;23.300;2023-01-24T09:32:50;95804.59;;;21.01;28.32
43217;BME280;60511;42.686;23.300;2023-01-24T09:34:50;95727.91;;;20.44;28.43
43217;BME280;60511;42.686;23.300;2023-01-24T09:36:51;95689.84;;;20.28;28.50
43217;BME280;60511;42.686;23.300;2023-01-24T09:38:51;95791.88;;;20.93;28.34
43217;BME280;60511;42.686;23.300;2023-01-24T09:41:37;95809.66;;;21.02;28.22
43217;BME280;60511;42.686;23.300;2023-01-24T09:45:51;95788.22;;;20.89;28.06
43217;BME280;60511;42.686;23.300;2023-01-24T09:47:58;95772.81;;;20.80;28.23
43217;BME280;60511;42.686;23.300;2023-01-24T09:50:03;95802.19;;;20.99;28.24
43217;BME280;60511;42.686;23.300;2023-01-24T09:52:07;95802.19;;;20.99;28.37
43217;BME280;60511;42.686;23.300;2023-01-24T09:54:15;95755.19;;;20.74;28.14
43217;BME280;60511;42.686;23.300;2023-01-24T09:56:24;95688.47;;;20.31;28.06
43217;BME280;60511;42.686;23.300;2023-01-24T09:58:39;95748.16;;;20.64;28.11
43217;BME280;60511;42.686;23.300;2023-01-24T10:00:42;95784.59;;;20.93;28.29
43217;BME280;60511;42.686;23.300;2023-01-24T10:02:43;95742.78;;;20.64;28.17
43217;BME280;60511;42.686;23.300;2023-01-24T10:04:44;95748.22;;;20.73;28.25
43217;BME280;60511;42.686;23.300;2023-01-24T10:12:01;95769.78;;;20.82;28.39
43217;BME280;60511;42.686;23.300;2023-01-24T10:23:26;95742.03;;;20.73;28.16
43217;BME280;60511;42.686;23.300;2023-01-24T10:27:46;95714.84;;;20.52;28.43
43217;BME280;60511;42.686;23.300;2023-01-24T10:29:55;95764.72;;;20.80;28.26
43217;BME280;60511;42.686;23.300;2023-01-24T10:32:05;95783.34;;;20.99;28.12
43217;BME280;60511;42.686;23.300;2023-01-24T10:34:12;95776.06;;;21.00;28.02
43217;BME280;60511;42.686;23.300;2023-01-24T10:38:32;95766.91;;;21.01;28.29
43217;BME280;60511;42.686;23.300;2023-01-24T10:40:33;95744.28;;;20.79;28.40
43217;BME280;60511;42.686;23.300;2023-01-24T10:42:33;95693.75;;;20.45;28.36
43217;BME280;60511;42.686;23.300;2023-01-24T10:44:38;95724.97;;;20.77;28.29
43217;BME280;60511;42.686;23.300;2023-01-24T10:47:04;95747.22;;;20.92;28.34
43217;BME280;60511;42.686;23.300;2023-01-24T10:49:17;95664.38;;;20.26;28.22
43217;BME280;60511;42.686;23.300;2023-01-24T10:51:23;95739.88;;;20.83;28.11
43217;BME280;60511;42.686;23.300;2023-01-24T10:53:25;95751.50;;;20.93;27.98
43217;BME280;60511;42.686;23.300;2023-01-24T10:55:30;95758.81;;;21.01;28.18
43217;BME280;60511;42.686;23.300;2023-01-24T10:59:42;95641.41;;;20.20;28.38
43217;BME280;60511;42.686;23.300;2023-01-24T11:01:50;95686.25;;;20.33;28.10
43217;BME280;60511;42.686;23.300;2023-01-24T11:03:51;95688.06;;;20.46;28.18
43217;BME280;60511;42.686;23.300;2023-01-24T11:05:54;95737.38;;;20.87;28.18
43217;BME280;60511;42.686;23.300;2023-01-24T11:08:00;95763.72;;;20.99;28.25
43217;BME280;60511;42.686;23.300;2023-01-24T11:10:04;95649.84;;;20.27;28.41
43217;BME280;60511;42.686;23.300;2023-01-24T11:12:13;95692.91;;;20.58;28.13
43217;BME280;60511;42.686;23.300;2023-01-24T11:14:16;95680.97;;;20.51;28.38
43217;BME280;60511;42.686;23.300;2023-01-24T11:18:23;95666.81;;;20.36;28.27
43217;BME280;60511;42.686;23.300;2023-01-24T11:20:32;95747.88;;;20.97;28.30
43217;BME280;60511;42.686;23.300;2023-01-24T11:22:33;95625.72;;;20.13;28.08
43217;BME280;60511;42.686;23.300;2023-01-24T11:24:42;95734.19;;;20.85;28.30
43217;BME280;60511;42.686;23.300;2023-01-24T11:29:00;95740.88;;;20.96;28.25